Terminal Aerodrome Forecast
Issued by NWS Amarillo, TX

Home | Current Version | Previous Version | Text Only | Print | Product List | Glossary On
Versions: 1 2 3 4 5 6 7 8 9 10 11 12 13 14 15 16 17
000
FTUS44 KAMA 251700
TAFDHT
TAF
KDHT 251734Z 2518/2618 22015G22KT P6SM FEW200
     FM260200 18011KT P6SM SCT100
     FM261500 29012KT P6SM BKN100=

USA.gov is the U.S. government's official web portal to all federal, state and local government web resources and services.